Terminal Aerodrome Forecast
Issued by NWS Cleveland, OH

Home | Current Version | Previous Version | Text Only | Print | Product List | Glossary Off
Versions: 1 2 3 4 5 6 7 8 9 10 11 12 13 14 15 16 17

000
FTUS41 KCLE 150500
TAFYNG
TAF
KYNG 150520Z 1506/1606 03006KT P6SM OVC200
     FM151500 04012KT P6SM OVC200
     FM160000 08008KT P6SM OVC200=

USA.gov is the U.S. government's official web portal to all federal, state and local government web resources and services.